createdAt,value
2023-04-26T00:01:39.549Z,8.41
2023-04-26T00:04:06.690Z,8.39
2023-04-26T00:06:33.564Z,8.38
2023-04-26T00:09:00.342Z,8.37
2023-04-26T00:11:26.982Z,8.37
2023-04-26T00:13:54.643Z,8.38
2023-04-26T00:16:21.327Z,8.35
2023-04-26T00:18:49.360Z,8.32
2023-04-26T00:21:16.048Z,8.31
2023-04-26T00:23:43.168Z,8.32
2023-04-26T00:26:10.817Z,8.28
2023-04-26T00:28:37.438Z,8.24
2023-04-26T00:31:04.157Z,8.25
2023-04-26T00:33:30.954Z,8.26
2023-04-26T00:35:57.628Z,8.27
2023-04-26T00:38:25.847Z,8.25
2023-04-26T00:40:52.419Z,8.24
2023-04-26T00:43:19.613Z,8.22
2023-04-26T00:45:46.380Z,8.21
2023-04-26T00:48:13.279Z,8.21
2023-04-26T00:50:40.029Z,8.21
2023-04-26T00:53:08.375Z,8.20
2023-04-26T00:55:35.374Z,8.20
2023-04-26T00:58:02.255Z,8.20
2023-04-26T01:00:29.799Z,8.20
2023-04-26T01:02:56.653Z,8.19
2023-04-26T01:05:23.526Z,8.17
2023-04-26T01:07:51.132Z,8.15
2023-04-26T01:10:17.993Z,8.12
2023-04-26T01:12:45.133Z,8.11
2023-04-26T01:15:12.187Z,8.12
2023-04-26T01:17:38.933Z,8.11
2023-04-26T01:20:08.641Z,8.13
2023-04-26T01:22:36.415Z,8.13
2023-04-26T01:25:04.820Z,8.12
2023-04-26T01:27:31.438Z,8.11
2023-04-26T01:29:58.042Z,8.11
2023-04-26T01:32:26.027Z,8.11
2023-04-26T01:34:52.656Z,8.12
2023-04-26T01:37:19.266Z,8.12
2023-04-26T01:39:46.604Z,8.13
2023-04-26T01:42:13.420Z,8.12
2023-04-26T01:44:40.038Z,8.14
2023-04-26T01:47:09.030Z,8.14
2023-04-26T01:49:36.054Z,8.14
2023-04-26T01:52:02.892Z,8.15
2023-04-26T01:54:29.519Z,8.15
2023-04-26T01:56:56.131Z,8.15
2023-04-26T01:59:22.789Z,8.15
2023-04-26T02:01:49.444Z,8.16
2023-04-26T02:04:16.341Z,8.16
2023-04-26T02:06:42.982Z,8.16
2023-04-26T02:09:10.643Z,8.16
2023-04-26T02:11:37.301Z,8.16
2023-04-26T02:14:04.966Z,8.16
2023-04-26T02:16:32.739Z,8.14
2023-04-26T02:19:00.177Z,8.16
2023-04-26T02:21:28.444Z,8.16
2023-04-26T02:23:55.241Z,8.18
2023-04-26T02:26:21.945Z,8.18
2023-04-26T02:28:48.595Z,8.21
2023-04-26T02:31:15.314Z,8.21
2023-04-26T02:33:42.090Z,8.19
2023-04-26T02:36:08.943Z,8.19
2023-04-26T02:38:36.569Z,8.18
2023-04-26T02:41:04.494Z,8.19
2023-04-26T02:43:31.139Z,8.17
2023-04-26T02:46:00.614Z,8.17
2023-04-26T02:48:27.245Z,8.18
2023-04-26T02:50:53.898Z,8.18
2023-04-26T02:53:20.959Z,8.17
2023-04-26T02:55:47.571Z,8.16
2023-04-26T02:58:14.188Z,8.15
2023-04-26T03:00:46.351Z,8.13
2023-04-26T03:03:13.645Z,8.11
2023-04-26T03:05:41.604Z,8.08
2023-04-26T03:08:08.380Z,8.10
2023-04-26T03:10:35.043Z,8.08
2023-04-26T03:13:01.767Z,8.05
2023-04-26T03:15:28.410Z,8.05
2023-04-26T03:17:55.111Z,8.05
2023-04-26T03:20:21.928Z,8.04
2023-04-26T03:22:48.550Z,8.03
2023-04-26T03:25:16.268Z,8.01
2023-04-26T03:27:43.136Z,7.96
2023-04-26T03:30:10.127Z,7.96
2023-04-26T03:32:36.943Z,7.94
2023-04-26T03:35:04.643Z,7.94
2023-04-26T03:37:32.901Z,7.95
2023-04-26T03:39:59.534Z,7.95
2023-04-26T03:42:26.158Z,7.94
2023-04-26T03:44:52.802Z,7.93
2023-04-26T03:47:19.395Z,7.93
2023-04-26T03:49:46.006Z,7.91
2023-04-26T03:52:12.583Z,7.90
2023-04-26T03:54:39.246Z,7.89
2023-04-26T03:57:06.097Z,7.89
2023-04-26T03:59:32.881Z,7.89
2023-04-26T04:01:59.572Z,7.89
2023-04-26T04:04:26.382Z,7.88
2023-04-26T04:06:53.333Z,7.86
2023-04-26T04:09:20.024Z,7.85
2023-04-26T04:11:47.585Z,7.85
2023-04-26T04:14:14.331Z,7.84
2023-04-26T04:16:40.952Z,7.81
2023-04-26T04:19:07.691Z,7.82
2023-04-26T04:21:34.527Z,7.80
2023-04-26T04:24:01.349Z,7.79
2023-04-26T04:26:31.065Z,7.80
2023-04-26T04:29:00.642Z,7.78
2023-04-26T04:31:27.349Z,7.76
2023-04-26T04:33:53.969Z,7.75
2023-04-26T04:36:20.592Z,7.72
2023-04-26T04:38:47.368Z,7.69
2023-04-26T04:41:14.544Z,7.62
2023-04-26T04:43:41.833Z,7.63
2023-04-26T04:46:09.580Z,7.61
2023-04-26T04:48:38.789Z,7.59
2023-04-26T04:51:06.461Z,7.56
2023-04-26T04:53:33.074Z,7.54
2023-04-26T04:55:59.688Z,7.54
2023-04-26T04:58:26.403Z,7.52
2023-04-26T05:00:55.634Z,7.51
2023-04-26T05:03:22.955Z,7.51
2023-04-26T05:05:49.751Z,7.52
2023-04-26T05:08:17.408Z,7.51
2023-04-26T05:10:45.607Z,7.51
2023-04-26T05:13:12.218Z,7.51
2023-04-26T05:15:38.783Z,7.53
2023-04-26T05:18:05.756Z,7.55
2023-04-26T05:20:32.579Z,7.57
2023-04-26T05:22:59.190Z,7.59
2023-04-26T05:25:25.921Z,7.61
2023-04-26T05:27:54.246Z,7.62
2023-04-26T05:30:21.151Z,7.63
2023-04-26T05:32:47.922Z,7.65
2023-04-26T05:35:14.776Z,7.66
2023-04-26T05:37:41.666Z,7.69
2023-04-26T05:40:09.341Z,7.71
2023-04-26T05:42:36.906Z,7.74
2023-04-26T05:45:04.046Z,7.76
2023-04-26T05:47:30.940Z,7.78
2023-04-26T05:49:57.566Z,7.81
2023-04-26T05:52:24.239Z,7.83
2023-04-26T05:54:50.812Z,7.87
2023-04-26T05:57:19.064Z,7.90
2023-04-26T05:59:46.149Z,7.94
2023-04-26T06:02:12.900Z,7.97
2023-04-26T06:04:39.692Z,7.99
2023-04-26T06:07:07.271Z,8.03
2023-04-26T06:09:34.004Z,8.09
2023-04-26T06:12:00.710Z,8.13
2023-04-26T06:14:30.677Z,8.19
2023-04-26T06:16:58.491Z,8.25
2023-04-26T06:19:25.471Z,8.30
2023-04-26T06:21:55.624Z,8.33
2023-04-26T06:24:23.429Z,8.35
2023-04-26T06:26:50.083Z,8.32
2023-04-26T06:29:17.365Z,8.30
2023-04-26T06:31:44.085Z,8.24
2023-04-26T06:34:10.690Z,8.22
2023-04-26T06:36:37.352Z,8.22
2023-04-26T06:39:04.090Z,8.25
2023-04-26T06:41:31.298Z,8.24
2023-04-26T06:43:57.929Z,8.24
2023-04-26T06:46:24.683Z,8.23
2023-04-26T06:48:54.329Z,8.23
2023-04-26T06:51:20.961Z,8.20
2023-04-26T06:53:48.773Z,8.18
2023-04-26T06:56:15.532Z,8.17
2023-04-26T06:58:58.991Z,8.16
2023-04-26T07:01:30.292Z,8.18
2023-04-26T07:03:59.734Z,8.21
2023-04-26T07:06:26.922Z,8.23
2023-04-26T07:08:53.776Z,8.26
2023-04-26T07:11:22.352Z,8.27
2023-04-26T07:13:51.144Z,8.31
2023-04-26T07:16:18.456Z,8.37
2023-04-26T07:18:45.211Z,8.41
2023-04-26T07:21:11.909Z,8.43
2023-04-26T07:23:38.540Z,8.46
2023-04-26T07:26:05.665Z,8.48
2023-04-26T07:28:32.451Z,8.50
2023-04-26T07:31:00.250Z,8.56
2023-04-26T07:33:27.534Z,8.69
2023-04-26T07:35:58.181Z,8.87
2023-04-26T07:38:25.671Z,9.10
2023-04-26T07:40:52.860Z,9.37
2023-04-26T07:43:21.797Z,9.66
2023-04-26T07:45:48.506Z,9.91
2023-04-26T07:48:15.842Z,10.11
2023-04-26T07:50:42.479Z,10.27
2023-04-26T07:53:09.116Z,10.37
2023-04-26T07:55:37.480Z,10.47
2023-04-26T07:58:04.537Z,10.57
2023-04-26T08:00:33.171Z,10.68
2023-04-26T08:03:00.272Z,10.78
2023-04-26T08:05:28.009Z,10.89
2023-04-26T08:07:54.764Z,11.01
2023-04-26T08:10:21.479Z,11.14
2023-04-26T08:12:50.452Z,11.27
2023-04-26T08:15:17.114Z,11.40
2023-04-26T08:17:43.792Z,11.48
2023-04-26T08:20:11.003Z,11.56
2023-04-26T08:22:37.731Z,11.68
2023-04-26T08:25:05.590Z,11.74
2023-04-26T08:27:34.488Z,11.80
2023-04-26T08:30:01.235Z,11.87
2023-04-26T08:32:27.988Z,11.96
2023-04-26T08:34:54.818Z,12.04
2023-04-26T08:37:21.564Z,12.16
2023-04-26T08:39:48.193Z,12.30
2023-04-26T08:42:16.391Z,12.45
2023-04-26T08:44:44.827Z,12.61
2023-04-26T08:47:31.902Z,12.75
2023-04-26T08:50:03.878Z,12.81
2023-04-26T08:52:31.286Z,12.81
2023-04-26T08:55:00.762Z,12.88
2023-04-26T08:57:27.906Z,12.98
2023-04-26T08:59:57.882Z,13.10
2023-04-26T09:02:25.268Z,13.17
2023-04-26T09:04:52.145Z,13.18
2023-04-26T09:07:30.989Z,13.19
2023-04-26T09:09:58.827Z,13.14
2023-04-26T09:12:25.706Z,13.15
2023-04-26T09:14:53.212Z,13.50
2023-04-26T09:17:31.177Z,14.29
2023-04-26T09:19:58.993Z,14.76
2023-04-26T09:22:34.693Z,15.39
2023-04-26T09:25:05.513Z,16.17
2023-04-26T09:27:37.471Z,16.80
2023-04-26T09:30:06.257Z,17.16
2023-04-26T09:33:05.065Z,17.66
2023-04-26T09:35:42.886Z,18.01
2023-04-26T09:38:15.031Z,18.16
2023-04-26T09:40:43.824Z,18.16
2023-04-26T09:43:19.197Z,18.10
2023-04-26T09:45:50.628Z,18.16
2023-04-26T09:48:30.780Z,18.11
2023-04-26T09:51:19.083Z,17.94
2023-04-26T09:53:47.683Z,17.73
2023-04-26T09:56:15.740Z,17.65
2023-04-26T09:58:52.498Z,17.37
2023-04-26T10:01:20.134Z,17.23
2023-04-26T10:03:47.567Z,16.84
2023-04-26T10:06:16.501Z,16.43
2023-04-26T10:08:43.709Z,15.97
2023-04-26T10:11:13.954Z,15.75
2023-04-26T10:13:42.207Z,15.72
2023-04-26T10:16:12.685Z,15.74
2023-04-26T10:18:39.893Z,15.87
2023-04-26T10:21:21.874Z,15.88
2023-04-26T10:23:49.753Z,15.85
2023-04-26T10:26:53.108Z,15.86
2023-04-26T10:29:21.365Z,15.80
2023-04-26T10:32:04.612Z,15.77
2023-04-26T10:34:33.172Z,15.93
2023-04-26T10:37:18.420Z,16.26
2023-04-26T10:39:47.101Z,16.23
2023-04-26T10:42:25.952Z,16.58
2023-04-26T10:45:33.325Z,17.04
2023-04-26T10:48:20.152Z,17.26
2023-04-26T10:50:59.454Z,17.23
2023-04-26T10:53:28.177Z,17.15
2023-04-26T10:55:54.954Z,16.90
2023-04-26T10:58:34.516Z,16.63
2023-04-26T11:01:18.826Z,16.24
2023-04-26T11:03:58.201Z,16.01
2023-04-26T11:06:29.862Z,15.84
2023-04-26T11:09:00.168Z,15.68
2023-04-26T11:11:29.798Z,15.49
2023-04-26T11:13:57.097Z,15.37
2023-04-26T11:16:26.785Z,15.18
2023-04-26T11:18:54.835Z,15.00
2023-04-26T11:21:21.670Z,14.91
2023-04-26T11:23:55.572Z,14.77
2023-04-26T11:26:22.364Z,14.60
2023-04-26T11:28:49.510Z,14.42
2023-04-26T11:31:19.059Z,14.34
2023-04-26T11:33:49.098Z,14.26
2023-04-26T11:36:17.204Z,14.18
2023-04-26T11:38:43.909Z,14.09
2023-04-26T11:41:11.442Z,14.06
2023-04-26T11:43:40.149Z,14.07
2023-04-26T11:46:08.653Z,14.18
2023-04-26T11:48:36.969Z,14.20
2023-04-26T11:51:05.684Z,14.28
2023-04-26T11:53:40.574Z,14.35
2023-04-26T11:56:17.860Z,14.42
2023-04-26T11:58:53.772Z,14.48
2023-04-26T12:01:28.334Z,14.55
2023-04-26T12:03:57.194Z,14.67
2023-04-26T12:06:42.694Z,14.75
2023-04-26T12:09:09.626Z,14.68
2023-04-26T12:11:36.334Z,14.62
2023-04-26T12:14:03.866Z,14.64
2023-04-26T12:16:30.844Z,14.73
2023-04-26T12:18:57.745Z,14.79
2023-04-26T12:21:25.585Z,14.88
2023-04-26T12:23:52.918Z,15.01
2023-04-26T12:26:20.634Z,15.15
2023-04-26T12:28:47.520Z,15.21
2023-04-26T12:31:14.238Z,15.17
2023-04-26T12:33:41.059Z,15.06
2023-04-26T12:36:11.960Z,14.89
2023-04-26T12:38:40.668Z,14.76
2023-04-26T12:41:07.437Z,14.70
2023-04-26T12:43:34.346Z,14.62
2023-04-26T12:46:01.724Z,14.60
2023-04-26T12:48:29.155Z,14.52
2023-04-26T12:50:56.096Z,14.48
2023-04-26T12:53:22.873Z,14.56
2023-04-26T12:55:49.527Z,14.62
2023-04-26T12:58:16.259Z,14.79
2023-04-26T13:00:44.596Z,14.85
2023-04-26T13:03:14.629Z,14.87
2023-04-26T13:05:41.922Z,14.89
2023-04-26T13:08:08.894Z,14.95
2023-04-26T13:10:35.530Z,15.02
2023-04-26T13:13:02.393Z,15.06
2023-04-26T13:15:29.978Z,14.99
2023-04-26T13:17:58.150Z,14.89
2023-04-26T13:20:26.681Z,14.92
2023-04-26T13:22:54.439Z,14.94
2023-04-26T13:25:21.453Z,15.01
2023-04-26T13:27:48.132Z,15.08
2023-04-26T13:30:15.048Z,14.92
2023-04-26T13:32:41.709Z,14.79
2023-04-26T13:35:08.833Z,14.74
2023-04-26T13:37:35.616Z,14.60
2023-04-26T13:40:02.351Z,14.56
2023-04-26T13:42:29.195Z,14.87
2023-04-26T13:44:57.014Z,15.17
2023-04-26T13:47:23.709Z,15.36
2023-04-26T13:49:51.127Z,15.48
2023-04-26T13:52:18.321Z,15.60
2023-04-26T13:54:44.991Z,15.56
2023-04-26T13:57:11.912Z,15.58
2023-04-26T13:59:40.374Z,15.58
2023-04-26T14:02:07.259Z,15.59
2023-04-26T14:04:34.269Z,15.62
2023-04-26T14:07:01.176Z,15.65
2023-04-26T14:09:28.077Z,15.77
2023-04-26T14:12:07.895Z,15.88
2023-04-26T14:14:35.711Z,15.88
2023-04-26T14:17:02.344Z,15.83
2023-04-26T14:19:29.150Z,15.89
2023-04-26T14:21:55.830Z,15.97
2023-04-26T14:24:22.506Z,15.99
2023-04-26T14:26:49.145Z,16.03
2023-04-26T14:29:15.812Z,16.03
2023-04-26T14:31:42.487Z,16.11
2023-04-26T14:34:09.238Z,16.27
2023-04-26T14:36:37.241Z,16.29
2023-04-26T14:39:04.215Z,16.32
2023-04-26T14:41:31.111Z,16.39
2023-04-26T14:43:57.755Z,16.44
2023-04-26T14:46:24.495Z,16.57
2023-04-26T14:48:51.271Z,16.74
2023-04-26T14:51:19.643Z,16.78
2023-04-26T14:53:46.357Z,16.73
2023-04-26T14:56:13.057Z,16.76
2023-04-26T14:58:39.731Z,16.84
2023-04-26T15:01:06.485Z,16.80
2023-04-26T15:03:33.635Z,16.85
2023-04-26T15:06:00.369Z,16.85
2023-04-26T15:08:27.243Z,16.84
2023-04-26T15:10:54.162Z,16.85
2023-04-26T15:13:20.833Z,16.81
2023-04-26T15:15:47.543Z,16.75
2023-04-26T15:18:14.265Z,16.70
2023-04-26T15:20:41.560Z,16.69
2023-04-26T15:23:08.594Z,16.73
2023-04-26T15:25:37.284Z,16.92
2023-04-26T15:28:04.497Z,17.04
2023-04-26T15:30:31.546Z,17.12
2023-04-26T15:32:58.346Z,17.18
2023-04-26T15:35:25.278Z,17.43
2023-04-26T15:37:53.925Z,17.34
2023-04-26T15:40:22.218Z,17.27
2023-04-26T15:42:49.523Z,17.36
2023-04-26T15:45:16.405Z,17.37
2023-04-26T15:47:43.281Z,17.34
2023-04-26T15:50:10.318Z,17.39
2023-04-26T15:52:39.283Z,17.49
2023-04-26T15:55:07.333Z,17.54
2023-04-26T15:57:34.731Z,17.57
2023-04-26T16:00:01.829Z,17.62
2023-04-26T16:02:28.853Z,17.55
2023-04-26T16:04:56.332Z,17.59
2023-04-26T16:07:23.654Z,17.52
2023-04-26T16:09:50.714Z,17.46
2023-04-26T16:12:17.417Z,17.13
2023-04-26T16:14:44.140Z,16.83
2023-04-26T16:17:10.962Z,16.67
2023-04-26T16:19:37.657Z,16.49
2023-04-26T16:22:04.432Z,16.28
2023-04-26T16:24:31.533Z,16.14
2023-04-26T16:26:58.562Z,16.44
2023-04-26T16:29:25.422Z,16.75
2023-04-26T16:31:52.827Z,16.91
2023-04-26T16:34:20.007Z,17.01
2023-04-26T16:36:46.852Z,17.10
2023-04-26T16:39:15.841Z,17.23
2023-04-26T16:41:42.931Z,17.32
2023-04-26T16:44:09.669Z,17.43
2023-04-26T16:46:36.460Z,17.31
2023-04-26T16:49:09.556Z,17.29
2023-04-26T16:51:37.229Z,17.26
2023-04-26T16:54:04.182Z,17.35
2023-04-26T16:56:31.022Z,17.44
2023-04-26T16:58:57.645Z,17.46
2023-04-26T17:01:24.274Z,17.52
2023-04-26T17:06:18.586Z,17.25
2023-04-26T17:08:45.993Z,17.18
2023-04-26T17:11:18.633Z,17.18
2023-04-26T17:13:45.358Z,17.17
2023-04-26T17:16:12.377Z,17.25
2023-04-26T17:18:39.134Z,17.27
2023-04-26T17:21:06.130Z,17.19
2023-04-26T17:23:33.794Z,17.07
2023-04-26T17:26:02.040Z,16.88
2023-04-26T17:28:28.920Z,16.79
2023-04-26T17:30:57.252Z,16.81
2023-04-26T17:33:25.480Z,16.89
2023-04-26T17:35:52.209Z,16.92
2023-04-26T17:38:19.515Z,16.81
2023-04-26T17:40:46.168Z,16.66
2023-04-26T17:43:12.896Z,16.48
2023-04-26T17:45:39.591Z,16.37
2023-04-26T17:48:10.926Z,16.18
2023-04-26T17:50:37.663Z,16.14
2023-04-26T17:53:06.039Z,16.10
2023-04-26T17:55:33.073Z,15.96
2023-04-26T17:57:59.917Z,15.90
2023-04-26T18:00:26.998Z,15.95
2023-04-26T18:05:20.571Z,15.72
2023-04-26T18:07:47.406Z,15.68
2023-04-26T18:10:14.387Z,15.50
2023-04-26T18:12:41.030Z,15.36
2023-04-26T18:15:08.916Z,15.21
2023-04-26T18:17:36.128Z,15.09
2023-04-26T18:20:02.994Z,14.94
2023-04-26T18:22:29.652Z,14.85
2023-04-26T18:24:56.320Z,14.69
2023-04-26T18:27:23.046Z,14.46
2023-04-26T18:29:49.693Z,14.28
2023-04-26T18:32:16.489Z,14.01
2023-04-26T18:34:44.119Z,13.80
2023-04-26T18:37:10.861Z,13.68
2023-04-26T18:39:40.580Z,13.45
2023-04-26T18:42:07.435Z,13.31
2023-04-26T18:44:35.150Z,13.18
2023-04-26T18:47:01.863Z,13.06
2023-04-26T18:49:28.882Z,13.03
2023-04-26T18:51:57.338Z,13.00
2023-04-26T18:54:24.242Z,12.98
2023-04-26T18:56:50.954Z,12.86
2023-04-26T18:59:17.839Z,12.71
2023-04-26T19:01:44.499Z,12.56
2023-04-26T19:04:11.857Z,12.43
2023-04-26T19:06:41.309Z,12.39
2023-04-26T19:09:11.802Z,12.29
2023-04-26T19:11:38.938Z,12.27
2023-04-26T19:14:05.842Z,12.23
2023-04-26T19:16:32.640Z,12.19
2023-04-26T19:19:00.966Z,12.12
2023-04-26T19:21:27.632Z,12.04
2023-04-26T19:23:54.254Z,11.99
2023-04-26T19:26:20.947Z,12.02
2023-04-26T19:28:47.835Z,11.97
2023-04-26T19:31:14.596Z,11.87
2023-04-26T19:33:41.545Z,11.83
2023-04-26T19:36:09.920Z,11.79
2023-04-26T19:38:36.583Z,11.75
2023-04-26T19:41:03.237Z,11.67
2023-04-26T19:43:29.918Z,11.62
2023-04-26T19:45:56.650Z,11.65
2023-04-26T19:48:23.322Z,11.68
2023-04-26T19:50:49.969Z,11.67
2023-04-26T19:53:16.667Z,11.60
2023-04-26T19:55:43.389Z,11.59
2023-04-26T19:58:11.033Z,11.59
2023-04-26T20:00:38.893Z,11.60
2023-04-26T20:03:06.438Z,11.57
2023-04-26T20:05:33.953Z,11.54
2023-04-26T20:08:01.653Z,11.51
2023-04-26T20:10:32.380Z,11.51
2023-04-26T20:13:00.375Z,11.47
2023-04-26T20:15:27.990Z,11.51
2023-04-26T20:17:55.212Z,11.56
2023-04-26T20:20:22.046Z,11.60
2023-04-26T20:22:48.860Z,11.59
2023-04-26T20:25:15.858Z,11.56
2023-04-26T20:27:42.687Z,11.52
2023-04-26T20:30:09.902Z,11.53
2023-04-26T20:32:36.566Z,11.50
2023-04-26T20:35:03.792Z,11.47
2023-04-26T20:37:30.459Z,11.50
2023-04-26T20:39:57.770Z,11.50
2023-04-26T20:42:25.132Z,11.49
2023-04-26T20:44:52.322Z,11.52
2023-04-26T20:47:19.397Z,11.54
2023-04-26T20:49:46.028Z,11.59
2023-04-26T20:52:14.263Z,11.58
2023-04-26T20:54:41.154Z,11.54
2023-04-26T20:57:08.436Z,11.52
2023-04-26T20:59:35.143Z,11.46
2023-04-26T21:02:02.955Z,11.46
2023-04-26T21:04:29.870Z,11.46
2023-04-26T21:06:57.135Z,11.37
2023-04-26T21:09:23.755Z,11.41
2023-04-26T21:11:50.477Z,11.40
2023-04-26T21:14:19.416Z,11.40
2023-04-26T21:16:46.172Z,11.41
2023-04-26T21:19:12.901Z,11.44
2023-04-26T21:21:40.294Z,11.46
2023-04-26T21:24:07.349Z,11.48
2023-04-26T21:26:36.027Z,11.45
2023-04-26T21:29:02.710Z,11.42
2023-04-26T21:31:29.596Z,11.44
2023-04-26T21:33:56.502Z,11.45
2023-04-26T21:36:23.243Z,11.45
2023-04-26T21:38:49.844Z,11.42
2023-04-26T21:41:16.592Z,11.34
2023-04-26T21:43:43.181Z,11.33
2023-04-26T21:46:09.850Z,11.35
2023-04-26T21:48:36.601Z,11.37
2023-04-26T21:51:03.365Z,11.36
2023-04-26T21:53:30.044Z,11.40
2023-04-26T21:55:56.661Z,11.41
2023-04-26T21:58:23.443Z,11.39
2023-04-26T22:00:51.560Z,11.33
2023-04-26T22:03:18.907Z,11.27
2023-04-26T22:05:46.911Z,11.22
2023-04-26T22:08:13.799Z,11.21
2023-04-26T22:10:40.551Z,11.21
2023-04-26T22:13:07.269Z,11.21
2023-04-26T22:15:33.881Z,11.18
2023-04-26T22:18:00.881Z,11.16
2023-04-26T22:20:30.006Z,11.14
2023-04-26T22:22:57.705Z,11.14
2023-04-26T22:25:25.218Z,11.11
2023-04-26T22:27:51.848Z,11.08
2023-04-26T22:30:25.615Z,11.14
2023-04-26T22:32:55.617Z,11.14
2023-04-26T22:35:24.479Z,11.15
2023-04-26T22:37:51.851Z,11.15
2023-04-26T22:40:18.866Z,11.14
2023-04-26T22:42:45.599Z,11.10
2023-04-26T22:45:12.743Z,11.05
2023-04-26T22:47:40.342Z,11.07
2023-04-26T22:50:08.166Z,11.05
2023-04-26T22:52:35.319Z,11.05
2023-04-26T22:55:02.530Z,11.06
2023-04-26T22:57:29.870Z,11.08
2023-04-26T22:59:57.166Z,11.09
2023-04-26T23:02:24.320Z,11.11
2023-04-26T23:04:51.438Z,11.07
2023-04-26T23:07:18.216Z,11.06
2023-04-26T23:09:44.980Z,11.08
2023-04-26T23:12:11.672Z,11.04
2023-04-26T23:14:38.271Z,11.02
2023-04-26T23:17:05.788Z,11.02
2023-04-26T23:19:33.113Z,11.01
2023-04-26T23:21:59.910Z,10.99
2023-04-26T23:24:26.959Z,10.95
2023-04-26T23:26:53.791Z,10.94
2023-04-26T23:29:21.470Z,10.90
2023-04-26T23:31:48.300Z,10.81
2023-04-26T23:34:15.018Z,10.80
2023-04-26T23:36:41.641Z,10.82
2023-04-26T23:39:08.967Z,10.84
2023-04-26T23:41:35.955Z,10.88
2023-04-26T23:44:02.627Z,10.91
2023-04-26T23:46:29.387Z,10.87
2023-04-26T23:48:56.220Z,10.86
2023-04-26T23:51:22.965Z,10.85
2023-04-26T23:53:49.650Z,10.86
2023-04-26T23:56:16.444Z,10.84
2023-04-26T23:58:43.099Z,10.85
